createdAt,value
2023-04-21T00:01:10.567Z,7.53
2023-04-21T00:06:13.215Z,7.55
2023-04-21T00:11:15.475Z,7.57
2023-04-21T00:16:17.641Z,7.55
2023-04-21T00:21:20.301Z,7.50
2023-04-21T00:26:22.722Z,7.39
2023-04-21T00:31:25.417Z,7.30
2023-04-21T00:36:28.604Z,7.23
2023-04-21T00:41:31.257Z,7.16
2023-04-21T00:46:34.549Z,7.13
2023-04-21T00:51:37.687Z,7.06
2023-04-21T00:56:40.189Z,6.93
2023-04-21T01:01:42.809Z,6.79
2023-04-21T01:06:45.521Z,6.68
2023-04-21T01:12:08.366Z,6.60
2023-04-21T01:17:10.689Z,6.50
2023-04-21T01:22:13.776Z,6.41
2023-04-21T01:27:22.135Z,6.32
2023-04-21T01:32:30.470Z,6.21
2023-04-21T01:37:34.592Z,6.11
2023-04-21T01:42:40.620Z,6.02
2023-04-21T01:47:43.273Z,5.94
2023-04-21T01:52:45.640Z,5.85
2023-04-21T01:57:51.134Z,5.79
2023-04-21T02:02:53.902Z,5.73
2023-04-21T02:07:55.989Z,5.72
2023-04-21T02:12:58.235Z,5.72
2023-04-21T02:18:00.909Z,5.68
2023-04-21T02:23:03.467Z,5.63
2023-04-21T02:28:05.652Z,5.58
2023-04-21T02:33:07.862Z,5.54
2023-04-21T02:38:13.061Z,5.58
2023-04-21T02:43:17.985Z,5.62
2023-04-21T02:48:23.142Z,5.61
2023-04-21T02:53:26.530Z,5.58
2023-04-21T02:58:28.627Z,5.54
2023-04-21T03:03:31.998Z,5.48
2023-04-21T03:08:34.445Z,5.43
2023-04-21T03:13:36.495Z,5.37
2023-04-21T03:18:38.405Z,5.32
2023-04-21T03:23:41.264Z,5.26
2023-04-21T03:28:43.369Z,5.20
2023-04-21T03:33:45.763Z,5.13
2023-04-21T03:38:47.727Z,5.06
2023-04-21T03:43:52.388Z,5.01
2023-04-21T03:48:54.505Z,4.99
2023-04-21T03:53:56.544Z,4.96
2023-04-21T03:58:58.909Z,4.96
2023-04-21T04:04:01.186Z,4.97
2023-04-21T04:09:05.124Z,5.00
2023-04-21T04:14:07.237Z,5.02
2023-04-21T04:19:09.378Z,5.06
2023-04-21T04:24:12.379Z,5.11
2023-04-21T04:29:16.243Z,5.18
2023-04-21T04:34:19.242Z,5.29
2023-04-21T04:39:22.332Z,5.41
2023-04-21T04:44:26.010Z,5.55
2023-04-21T04:49:27.952Z,5.72
2023-04-21T04:54:30.068Z,5.89
2023-04-21T04:59:32.973Z,6.08
2023-04-21T05:04:35.380Z,6.30
2023-04-21T05:09:37.361Z,6.52
2023-04-21T05:14:39.484Z,6.72
2023-04-21T05:19:41.409Z,6.92
2023-04-21T05:24:44.818Z,7.12
2023-04-21T05:29:46.811Z,7.32
2023-04-21T05:34:48.772Z,7.52
2023-04-21T05:39:51.685Z,7.71
2023-04-21T05:44:54.706Z,7.89
2023-04-21T05:49:56.612Z,8.06
2023-04-21T05:55:02.268Z,8.27
2023-04-21T06:00:05.411Z,8.51
2023-04-21T06:05:08.011Z,8.74
2023-04-21T06:10:11.882Z,8.98
2023-04-21T06:15:13.881Z,9.21
2023-04-21T06:20:17.735Z,9.43
2023-04-21T06:25:20.043Z,9.64
2023-04-21T06:30:22.949Z,9.86
2023-04-21T06:35:25.062Z,10.07
2023-04-21T06:40:26.911Z,10.30
2023-04-21T06:45:29.166Z,10.51
2023-04-21T06:50:31.787Z,10.75
2023-04-21T06:55:34.340Z,10.98
2023-04-21T07:00:36.403Z,11.20
2023-04-21T07:05:38.804Z,11.41
2023-04-21T07:10:41.078Z,11.64
2023-04-21T07:15:43.224Z,11.86
2023-04-21T07:20:45.500Z,12.09
2023-04-21T07:25:48.280Z,12.32
2023-04-21T07:30:50.586Z,12.55
2023-04-21T07:35:52.786Z,12.78
2023-04-21T07:40:54.982Z,13.03
2023-04-21T07:45:58.407Z,13.28
2023-04-21T07:51:00.565Z,13.54
2023-04-21T07:56:02.904Z,13.76
2023-04-21T08:01:05.110Z,13.98
2023-04-21T08:06:08.253Z,14.22
2023-04-21T08:11:11.011Z,14.45
2023-04-21T08:16:13.764Z,14.68
2023-04-21T08:21:15.723Z,14.91
2023-04-21T08:26:22.156Z,15.11
2023-04-21T08:31:24.135Z,15.31
2023-04-21T08:36:29.851Z,15.52
2023-04-21T08:41:32.164Z,15.74
2023-04-21T08:46:36.356Z,16.01
2023-04-21T08:51:38.362Z,16.37
2023-04-21T08:56:40.916Z,16.78
2023-04-21T09:02:06.868Z,17.15
2023-04-21T09:07:09.729Z,17.55
2023-04-21T09:12:11.629Z,17.76
2023-04-21T09:17:16.558Z,17.86
2023-04-21T09:22:19.130Z,18.03
2023-04-21T09:27:21.885Z,18.17
2023-04-21T09:32:23.867Z,18.44
2023-04-21T09:37:26.025Z,18.85
2023-04-21T09:42:32.114Z,19.36
2023-04-21T09:47:48.588Z,19.66
2023-04-21T09:52:52.679Z,19.92
2023-04-21T09:58:02.738Z,20.01
2023-04-21T10:03:05.966Z,20.20
2023-04-21T10:08:11.304Z,20.43
2023-04-21T10:13:16.646Z,20.41
2023-04-21T10:18:22.676Z,20.39
2023-04-21T10:23:33.900Z,20.45
2023-04-21T10:28:43.801Z,20.34
2023-04-21T10:34:13.799Z,20.44
2023-04-21T10:39:38.709Z,20.60
2023-04-21T10:44:44.332Z,20.72
2023-04-21T10:49:50.031Z,20.81
2023-04-21T10:54:54.823Z,20.67
2023-04-21T10:59:57.197Z,20.39
2023-04-21T11:05:01.574Z,20.28
2023-04-21T11:10:08.700Z,20.44
2023-04-21T11:15:13.592Z,20.57
2023-04-21T11:20:15.881Z,20.61
2023-04-21T11:25:18.839Z,20.37
2023-04-21T11:30:21.503Z,20.05
2023-04-21T11:35:23.497Z,19.87
2023-04-21T11:40:25.669Z,19.78
2023-04-21T11:45:29.137Z,19.54
2023-04-21T11:50:32.525Z,19.41
2023-04-21T11:55:34.864Z,19.54
2023-04-21T12:00:37.144Z,19.67
2023-04-21T12:05:39.455Z,19.87
2023-04-21T12:10:47.060Z,20.06
2023-04-21T12:15:49.263Z,20.02
2023-04-21T12:20:52.668Z,19.96
2023-04-21T12:25:54.488Z,19.99
2023-04-21T12:30:56.746Z,20.05
2023-04-21T12:35:59.883Z,20.12
2023-04-21T12:41:02.030Z,20.22
2023-04-21T12:46:04.037Z,20.38
2023-04-21T12:51:06.181Z,20.41
2023-04-21T12:56:08.194Z,20.39
2023-04-21T13:01:12.245Z,20.29
2023-04-21T13:06:14.263Z,20.30
2023-04-21T13:11:16.219Z,20.46
2023-04-21T13:16:18.152Z,20.66
2023-04-21T13:21:20.340Z,20.79
2023-04-21T13:26:22.159Z,20.87
2023-04-21T13:31:24.697Z,20.81
2023-04-21T13:36:26.973Z,20.70
2023-04-21T13:41:29.113Z,20.52
2023-04-21T13:46:31.103Z,20.29
2023-04-21T13:51:33.220Z,20.09
2023-04-21T13:56:35.061Z,20.10
2023-04-21T14:01:37.788Z,20.12
2023-04-21T14:06:39.945Z,20.11
2023-04-21T14:11:42.366Z,20.08
2023-04-21T14:16:44.395Z,20.08
2023-04-21T14:21:46.502Z,20.15
2023-04-21T14:26:48.528Z,20.11
2023-04-21T14:31:51.560Z,20.01
2023-04-21T14:36:54.036Z,20.00
2023-04-21T14:41:57.009Z,20.12
2023-04-21T14:47:09.281Z,20.30
2023-04-21T14:52:13.165Z,20.49
2023-04-21T14:57:19.834Z,20.40
2023-04-21T15:02:23.038Z,20.14
2023-04-21T15:07:25.323Z,19.96
2023-04-21T15:12:27.519Z,19.68
2023-04-21T15:17:30.683Z,19.36
2023-04-21T15:22:34.606Z,19.21
2023-04-21T15:27:36.968Z,19.28
2023-04-21T15:32:41.192Z,19.43
2023-04-21T15:37:45.812Z,19.62
2023-04-21T15:42:51.688Z,19.77
2023-04-21T15:47:53.856Z,19.78
2023-04-21T15:52:56.101Z,19.69
2023-04-21T15:57:58.232Z,19.54
2023-04-21T16:03:01.943Z,19.31
2023-04-21T16:08:04.757Z,19.01
2023-04-21T16:13:08.021Z,18.90
2023-04-21T16:18:10.009Z,18.78
2023-04-21T16:23:13.162Z,18.65
2023-04-21T16:28:15.472Z,18.57
2023-04-21T16:33:18.418Z,18.49
2023-04-21T16:38:20.403Z,18.40
2023-04-21T16:43:23.600Z,18.25
2023-04-21T16:48:25.665Z,18.09
2023-04-21T16:53:27.905Z,17.94
2023-04-21T16:58:30.238Z,17.74
2023-04-21T17:03:32.623Z,17.54
2023-04-21T17:08:34.971Z,17.35
2023-04-21T17:13:39.295Z,17.19
2023-04-21T17:18:41.603Z,17.02
2023-04-21T17:23:43.686Z,16.82
2023-04-21T17:28:46.147Z,16.60
2023-04-21T17:33:48.668Z,16.39
2023-04-21T17:38:51.082Z,16.15
2023-04-21T17:43:57.428Z,15.90
2023-04-21T17:48:59.394Z,15.63
2023-04-21T17:54:03.348Z,15.39
2023-04-21T17:59:05.526Z,15.19
2023-04-21T18:04:09.448Z,14.97
2023-04-21T18:09:12.164Z,14.70
2023-04-21T18:14:14.186Z,14.48
2023-04-21T18:19:17.361Z,14.23
2023-04-21T18:24:19.479Z,13.99
2023-04-21T18:29:21.689Z,13.75
2023-04-21T18:34:24.216Z,13.54
2023-04-21T18:39:26.166Z,13.43
2023-04-21T18:44:30.181Z,13.36
2023-04-21T18:49:32.579Z,13.24
2023-04-21T18:54:35.476Z,13.10
2023-04-21T18:59:38.781Z,12.92
2023-04-21T19:04:44.053Z,12.76
2023-04-21T19:09:46.436Z,12.62
2023-04-21T19:14:49.484Z,12.52
2023-04-21T19:19:51.798Z,12.38
2023-04-21T19:24:56.122Z,12.24
2023-04-21T19:29:58.815Z,12.11
2023-04-21T19:35:06.032Z,11.91
2023-04-21T19:40:09.131Z,11.70
2023-04-21T19:45:12.331Z,11.53
2023-04-21T19:50:14.635Z,11.40
2023-04-21T19:55:17.280Z,11.27
2023-04-21T20:00:19.460Z,11.16
2023-04-21T20:05:22.007Z,11.07
2023-04-21T20:10:23.997Z,11.00
2023-04-21T20:15:27.028Z,10.95
2023-04-21T20:20:29.728Z,10.92
2023-04-21T20:25:32.106Z,10.89
2023-04-21T20:30:34.662Z,10.85
2023-04-21T20:35:40.704Z,10.82
2023-04-21T20:40:43.681Z,10.79
2023-04-21T20:45:47.654Z,10.76
2023-04-21T20:50:51.369Z,10.69
2023-04-21T20:55:53.668Z,10.58
2023-04-21T21:00:55.548Z,10.48
2023-04-21T21:05:57.595Z,10.36
2023-04-21T21:11:00.296Z,10.25
2023-04-21T21:16:07.819Z,10.18
2023-04-21T21:21:10.748Z,10.13
2023-04-21T21:26:12.801Z,10.08
2023-04-21T21:31:14.615Z,10.02
2023-04-21T21:36:17.441Z,9.95
2023-04-21T21:41:21.565Z,9.89
2023-04-21T21:46:43.723Z,9.82
2023-04-21T21:51:48.088Z,9.74
2023-04-21T21:56:50.489Z,9.66
2023-04-21T22:01:52.548Z,9.57
2023-04-21T22:06:54.871Z,9.48
